sensor_id;sensor_type;location;lat;lon;timestamp;P1;durP1;ratioP1;P2;durP2;ratioP2
27794;SDS011;15176;50.844;4.412;2023-05-07T00:01:13;9.93;;;3.55;;
27794;SDS011;15176;50.844;4.412;2023-05-07T00:03:39;11.35;;;3.60;;
27794;SDS011;15176;50.844;4.412;2023-05-07T00:06:05;9.77;;;3.10;;
27794;SDS011;15176;50.844;4.412;2023-05-07T00:08:30;11.10;;;3.60;;
27794;SDS011;15176;50.844;4.412;2023-05-07T00:10:56;9.50;;;2.70;;
27794;SDS011;15176;50.844;4.412;2023-05-07T00:13:22;10.48;;;3.10;;
27794;SDS011;15176;50.844;4.412;2023-05-07T00:15:47;8.02;;;2.97;;
27794;SDS011;15176;50.844;4.412;2023-05-07T00:18:13;8.48;;;3.03;;
27794;SDS011;15176;50.844;4.412;2023-05-07T00:20:38;11.23;;;3.72;;
27794;SDS011;15176;50.844;4.412;2023-05-07T00:23:04;8.80;;;3.15;;
27794;SDS011;15176;50.844;4.412;2023-05-07T00:25:30;9.73;;;3.00;;
27794;SDS011;15176;50.844;4.412;2023-05-07T00:27:56;10.60;;;3.90;;
27794;SDS011;15176;50.844;4.412;2023-05-07T00:30:27;9.02;;;3.20;;
27794;SDS011;15176;50.844;4.412;2023-05-07T00:32:53;8.80;;;3.38;;
27794;SDS011;15176;50.844;4.412;2023-05-07T00:35:19;11.25;;;3.78;;
27794;SDS011;15176;50.844;4.412;2023-05-07T00:37:45;12.80;;;3.67;;
27794;SDS011;15176;50.844;4.412;2023-05-07T00:40:11;7.07;;;2.95;;
27794;SDS011;15176;50.844;4.412;2023-05-07T00:42:37;12.23;;;3.70;;
27794;SDS011;15176;50.844;4.412;2023-05-07T00:45:03;4.88;;;2.10;;
27794;SDS011;15176;50.844;4.412;2023-05-07T00:47:29;10.85;;;3.35;;
27794;SDS011;15176;50.844;4.412;2023-05-07T00:49:55;9.45;;;3.40;;
27794;SDS011;15176;50.844;4.412;2023-05-07T00:52:23;8.02;;;3.17;;
27794;SDS011;15176;50.844;4.412;2023-05-07T00:54:51;10.10;;;3.13;;
27794;SDS011;15176;50.844;4.412;2023-05-07T00:57:18;13.02;;;3.08;;
27794;SDS011;15176;50.844;4.412;2023-05-07T00:59:46;13.23;;;3.33;;
27794;SDS011;15176;50.844;4.412;2023-05-07T01:02:11;10.30;;;3.63;;
27794;SDS011;15176;50.844;4.412;2023-05-07T01:04:37;9.60;;;3.13;;
27794;SDS011;15176;50.844;4.412;2023-05-07T01:07:03;7.38;;;2.78;;
27794;SDS011;15176;50.844;4.412;2023-05-07T01:09:29;9.35;;;3.20;;
27794;SDS011;15176;50.844;4.412;2023-05-07T01:11:55;6.93;;;2.90;;
27794;SDS011;15176;50.844;4.412;2023-05-07T01:14:22;8.85;;;2.70;;
27794;SDS011;15176;50.844;4.412;2023-05-07T01:16:48;9.50;;;3.42;;
27794;SDS011;15176;50.844;4.412;2023-05-07T01:19:16;9.82;;;3.47;;
27794;SDS011;15176;50.844;4.412;2023-05-07T01:21:46;9.25;;;3.20;;
27794;SDS011;15176;50.844;4.412;2023-05-07T01:24:14;8.18;;;2.72;;
27794;SDS011;15176;50.844;4.412;2023-05-07T01:26:41;9.93;;;2.95;;
27794;SDS011;15176;50.844;4.412;2023-05-07T01:29:08;7.80;;;3.00;;
27794;SDS011;15176;50.844;4.412;2023-05-07T01:31:33;6.55;;;2.88;;
27794;SDS011;15176;50.844;4.412;2023-05-07T01:34:01;12.18;;;3.00;;
27794;SDS011;15176;50.844;4.412;2023-05-07T01:36:28;8.98;;;3.47;;
27794;SDS011;15176;50.844;4.412;2023-05-07T01:38:55;9.93;;;3.08;;
27794;SDS011;15176;50.844;4.412;2023-05-07T01:41:22;9.50;;;3.05;;
27794;SDS011;15176;50.844;4.412;2023-05-07T01:43:49;8.95;;;3.22;;
27794;SDS011;15176;50.844;4.412;2023-05-07T01:46:17;8.18;;;3.33;;
27794;SDS011;15176;50.844;4.412;2023-05-07T01:48:44;8.20;;;2.85;;
27794;SDS011;15176;50.844;4.412;2023-05-07T01:51:11;11.30;;;3.47;;
27794;SDS011;15176;50.844;4.412;2023-05-07T01:53:37;13.05;;;3.70;;
27794;SDS011;15176;50.844;4.412;2023-05-07T01:56:04;13.15;;;3.78;;
27794;SDS011;15176;50.844;4.412;2023-05-07T01:58:30;10.82;;;3.50;;
27794;SDS011;15176;50.844;4.412;2023-05-07T02:00:56;12.27;;;2.83;;
27794;SDS011;15176;50.844;4.412;2023-05-07T02:03:21;11.18;;;3.72;;
27794;SDS011;15176;50.844;4.412;2023-05-07T02:05:47;13.25;;;3.83;;
27794;SDS011;15176;50.844;4.412;2023-05-07T02:08:13;13.73;;;3.00;;
27794;SDS011;15176;50.844;4.412;2023-05-07T02:10:39;8.32;;;3.25;;
27794;SDS011;15176;50.844;4.412;2023-05-07T02:13:04;10.35;;;3.50;;
27794;SDS011;15176;50.844;4.412;2023-05-07T02:15:30;9.60;;;3.78;;
27794;SDS011;15176;50.844;4.412;2023-05-07T02:18:00;10.55;;;3.40;;
27794;SDS011;15176;50.844;4.412;2023-05-07T02:20:29;11.15;;;3.80;;
27794;SDS011;15176;50.844;4.412;2023-05-07T02:22:56;12.07;;;3.75;;
27794;SDS011;15176;50.844;4.412;2023-05-07T02:25:22;12.00;;;3.45;;
27794;SDS011;15176;50.844;4.412;2023-05-07T02:27:47;7.15;;;3.35;;
27794;SDS011;15176;50.844;4.412;2023-05-07T02:30:13;9.63;;;3.33;;
27794;SDS011;15176;50.844;4.412;2023-05-07T02:32:39;6.32;;;2.42;;
27794;SDS011;15176;50.844;4.412;2023-05-07T02:35:06;13.98;;;3.83;;
27794;SDS011;15176;50.844;4.412;2023-05-07T02:37:32;15.43;;;3.80;;
27794;SDS011;15176;50.844;4.412;2023-05-07T02:39:58;13.70;;;3.95;;
27794;SDS011;15176;50.844;4.412;2023-05-07T02:42:23;7.57;;;3.00;;
27794;SDS011;15176;50.844;4.412;2023-05-07T02:44:49;13.38;;;3.55;;
27794;SDS011;15176;50.844;4.412;2023-05-07T02:47:15;8.90;;;3.75;;
27794;SDS011;15176;50.844;4.412;2023-05-07T02:49:41;11.70;;;4.13;;
27794;SDS011;15176;50.844;4.412;2023-05-07T02:52:07;8.07;;;3.15;;
27794;SDS011;15176;50.844;4.412;2023-05-07T02:54:33;12.80;;;3.95;;
27794;SDS011;15176;50.844;4.412;2023-05-07T02:56:59;8.88;;;3.25;;
27794;SDS011;15176;50.844;4.412;2023-05-07T02:59:25;9.75;;;3.53;;
27794;SDS011;15176;50.844;4.412;2023-05-07T03:01:51;10.60;;;3.50;;
27794;SDS011;15176;50.844;4.412;2023-05-07T03:04:17;12.90;;;3.30;;
27794;SDS011;15176;50.844;4.412;2023-05-07T03:06:42;12.15;;;3.17;;
27794;SDS011;15176;50.844;4.412;2023-05-07T03:09:08;9.98;;;3.17;;
27794;SDS011;15176;50.844;4.412;2023-05-07T03:11:34;13.77;;;3.95;;
27794;SDS011;15176;50.844;4.412;2023-05-07T03:14:00;9.73;;;2.63;;
27794;SDS011;15176;50.844;4.412;2023-05-07T03:16:26;9.38;;;3.25;;
27794;SDS011;15176;50.844;4.412;2023-05-07T03:18:52;6.45;;;2.30;;
27794;SDS011;15176;50.844;4.412;2023-05-07T03:21:18;11.65;;;3.70;;
27794;SDS011;15176;50.844;4.412;2023-05-07T03:23:43;5.82;;;1.83;;
27794;SDS011;15176;50.844;4.412;2023-05-07T03:26:09;9.45;;;2.55;;
27794;SDS011;15176;50.844;4.412;2023-05-07T03:28:36;10.93;;;3.78;;
27794;SDS011;15176;50.844;4.412;2023-05-07T03:31:02;11.48;;;4.13;;
27794;SDS011;15176;50.844;4.412;2023-05-07T03:33:27;9.90;;;3.58;;
27794;SDS011;15176;50.844;4.412;2023-05-07T03:35:53;12.18;;;4.03;;
27794;SDS011;15176;50.844;4.412;2023-05-07T03:38:19;17.50;;;4.05;;
27794;SDS011;15176;50.844;4.412;2023-05-07T03:40:45;10.57;;;3.35;;
27794;SDS011;15176;50.844;4.412;2023-05-07T03:43:11;8.07;;;2.67;;
27794;SDS011;15176;50.844;4.412;2023-05-07T03:45:37;8.93;;;3.40;;
27794;SDS011;15176;50.844;4.412;2023-05-07T03:48:03;11.75;;;3.90;;
27794;SDS011;15176;50.844;4.412;2023-05-07T03:50:28;12.48;;;3.88;;
27794;SDS011;15176;50.844;4.412;2023-05-07T03:52:54;5.93;;;2.53;;
27794;SDS011;15176;50.844;4.412;2023-05-07T03:55:20;7.50;;;2.40;;
27794;SDS011;15176;50.844;4.412;2023-05-07T03:57:46;10.45;;;2.97;;
27794;SDS011;15176;50.844;4.412;2023-05-07T04:00:11;5.18;;;1.73;;
27794;SDS011;15176;50.844;4.412;2023-05-07T04:02:38;5.03;;;2.35;;
27794;SDS011;15176;50.844;4.412;2023-05-07T04:05:04;10.77;;;3.28;;
27794;SDS011;15176;50.844;4.412;2023-05-07T04:07:30;6.60;;;2.97;;
27794;SDS011;15176;50.844;4.412;2023-05-07T04:09:56;7.47;;;3.30;;
27794;SDS011;15176;50.844;4.412;2023-05-07T04:12:23;10.05;;;3.97;;
27794;SDS011;15176;50.844;4.412;2023-05-07T04:14:49;6.57;;;2.20;;
27794;SDS011;15176;50.844;4.412;2023-05-07T04:17:15;10.38;;;3.35;;
27794;SDS011;15176;50.844;4.412;2023-05-07T04:19:41;8.65;;;2.92;;
27794;SDS011;15176;50.844;4.412;2023-05-07T04:22:10;10.93;;;3.50;;
27794;SDS011;15176;50.844;4.412;2023-05-07T04:24:36;11.70;;;3.03;;
27794;SDS011;15176;50.844;4.412;2023-05-07T04:27:02;10.25;;;3.80;;
27794;SDS011;15176;50.844;4.412;2023-05-07T04:29:28;10.70;;;3.53;;
27794;SDS011;15176;50.844;4.412;2023-05-07T04:31:54;9.93;;;3.80;;
27794;SDS011;15176;50.844;4.412;2023-05-07T04:34:21;8.65;;;3.70;;
27794;SDS011;15176;50.844;4.412;2023-05-07T04:36:48;11.63;;;4.00;;
27794;SDS011;15176;50.844;4.412;2023-05-07T04:39:13;10.55;;;3.38;;
27794;SDS011;15176;50.844;4.412;2023-05-07T04:41:39;7.25;;;2.90;;
27794;SDS011;15176;50.844;4.412;2023-05-07T04:44:05;11.13;;;2.53;;
27794;SDS011;15176;50.844;4.412;2023-05-07T04:46:31;9.13;;;3.40;;
27794;SDS011;15176;50.844;4.412;2023-05-07T04:48:57;9.63;;;3.38;;
27794;SDS011;15176;50.844;4.412;2023-05-07T04:51:22;7.05;;;2.50;;
27794;SDS011;15176;50.844;4.412;2023-05-07T04:53:48;13.32;;;3.80;;
27794;SDS011;15176;50.844;4.412;2023-05-07T04:56:14;11.60;;;3.70;;
27794;SDS011;15176;50.844;4.412;2023-05-07T04:58:40;9.32;;;2.78;;
27794;SDS011;15176;50.844;4.412;2023-05-07T05:01:05;13.85;;;3.60;;
27794;SDS011;15176;50.844;4.412;2023-05-07T05:03:31;11.15;;;3.20;;
27794;SDS011;15176;50.844;4.412;2023-05-07T05:05:56;10.70;;;3.70;;
27794;SDS011;15176;50.844;4.412;2023-05-07T05:08:24;10.35;;;3.05;;
27794;SDS011;15176;50.844;4.412;2023-05-07T05:10:50;10.65;;;3.30;;
27794;SDS011;15176;50.844;4.412;2023-05-07T05:13:16;10.02;;;3.40;;
27794;SDS011;15176;50.844;4.412;2023-05-07T05:15:42;10.52;;;2.85;;
27794;SDS011;15176;50.844;4.412;2023-05-07T05:18:08;10.77;;;3.30;;
27794;SDS011;15176;50.844;4.412;2023-05-07T05:20:34;8.88;;;3.17;;
27794;SDS011;15176;50.844;4.412;2023-05-07T05:22:59;9.25;;;3.10;;
27794;SDS011;15176;50.844;4.412;2023-05-07T05:25:25;7.15;;;2.70;;
27794;SDS011;15176;50.844;4.412;2023-05-07T05:27:51;11.45;;;3.17;;
27794;SDS011;15176;50.844;4.412;2023-05-07T05:30:16;10.52;;;3.22;;
27794;SDS011;15176;50.844;4.412;2023-05-07T05:32:42;9.75;;;3.28;;
27794;SDS011;15176;50.844;4.412;2023-05-07T05:35:08;10.18;;;3.65;;
27794;SDS011;15176;50.844;4.412;2023-05-07T05:37:34;9.55;;;3.05;;
27794;SDS011;15176;50.844;4.412;2023-05-07T05:40:00;11.23;;;3.42;;
27794;SDS011;15176;50.844;4.412;2023-05-07T05:42:25;12.65;;;3.78;;
27794;SDS011;15176;50.844;4.412;2023-05-07T05:44:51;9.75;;;3.50;;
27794;SDS011;15176;50.844;4.412;2023-05-07T05:47:17;11.50;;;2.97;;
27794;SDS011;15176;50.844;4.412;2023-05-07T05:49:42;11.45;;;3.28;;
27794;SDS011;15176;50.844;4.412;2023-05-07T05:52:08;12.35;;;3.95;;
27794;SDS011;15176;50.844;4.412;2023-05-07T05:54:34;8.52;;;3.28;;
27794;SDS011;15176;50.844;4.412;2023-05-07T05:57:00;12.60;;;3.42;;
27794;SDS011;15176;50.844;4.412;2023-05-07T05:59:29;10.43;;;3.42;;
27794;SDS011;15176;50.844;4.412;2023-05-07T06:01:54;8.13;;;2.38;;
27794;SDS011;15176;50.844;4.412;2023-05-07T06:04:20;10.18;;;3.50;;
27794;SDS011;15176;50.844;4.412;2023-05-07T06:06:47;11.45;;;3.58;;
27794;SDS011;15176;50.844;4.412;2023-05-07T06:09:14;10.98;;;3.30;;
27794;SDS011;15176;50.844;4.412;2023-05-07T06:11:39;10.90;;;3.33;;
27794;SDS011;15176;50.844;4.412;2023-05-07T06:14:06;14.60;;;3.88;;
27794;SDS011;15176;50.844;4.412;2023-05-07T06:16:32;14.95;;;4.20;;
27794;SDS011;15176;50.844;4.412;2023-05-07T06:18:58;13.93;;;3.95;;
27794;SDS011;15176;50.844;4.412;2023-05-07T06:21:23;11.95;;;3.83;;
27794;SDS011;15176;50.844;4.412;2023-05-07T06:23:49;16.60;;;4.30;;
27794;SDS011;15176;50.844;4.412;2023-05-07T06:26:16;10.55;;;4.03;;
27794;SDS011;15176;50.844;4.412;2023-05-07T06:28:42;12.80;;;3.47;;
27794;SDS011;15176;50.844;4.412;2023-05-07T06:31:14;11.20;;;3.97;;
27794;SDS011;15176;50.844;4.412;2023-05-07T06:33:41;13.63;;;4.22;;
27794;SDS011;15176;50.844;4.412;2023-05-07T06:36:07;12.18;;;3.90;;
27794;SDS011;15176;50.844;4.412;2023-05-07T06:38:33;7.43;;;3.30;;
27794;SDS011;15176;50.844;4.412;2023-05-07T06:40:59;10.38;;;3.90;;
27794;SDS011;15176;50.844;4.412;2023-05-07T06:43:24;9.10;;;3.40;;
27794;SDS011;15176;50.844;4.412;2023-05-07T06:45:50;12.55;;;3.63;;
27794;SDS011;15176;50.844;4.412;2023-05-07T06:48:16;11.15;;;3.95;;
27794;SDS011;15176;50.844;4.412;2023-05-07T06:50:42;8.90;;;3.83;;
27794;SDS011;15176;50.844;4.412;2023-05-07T06:53:08;11.77;;;3.72;;
27794;SDS011;15176;50.844;4.412;2023-05-07T06:55:33;8.38;;;3.45;;
27794;SDS011;15176;50.844;4.412;2023-05-07T06:57:59;11.85;;;3.80;;
27794;SDS011;15176;50.844;4.412;2023-05-07T07:00:29;10.77;;;3.97;;
27794;SDS011;15176;50.844;4.412;2023-05-07T07:02:55;13.65;;;3.60;;
27794;SDS011;15176;50.844;4.412;2023-05-07T07:05:21;10.40;;;4.07;;
27794;SDS011;15176;50.844;4.412;2023-05-07T07:07:47;10.27;;;3.95;;
27794;SDS011;15176;50.844;4.412;2023-05-07T07:10:21;10.30;;;3.83;;
27794;SDS011;15176;50.844;4.412;2023-05-07T07:12:47;8.80;;;3.75;;
27794;SDS011;15176;50.844;4.412;2023-05-07T07:15:14;9.57;;;3.80;;
27794;SDS011;15176;50.844;4.412;2023-05-07T07:17:40;10.85;;;3.85;;
27794;SDS011;15176;50.844;4.412;2023-05-07T07:20:06;10.07;;;4.10;;
27794;SDS011;15176;50.844;4.412;2023-05-07T07:22:32;7.93;;;3.17;;
27794;SDS011;15176;50.844;4.412;2023-05-07T07:24:58;10.18;;;3.38;;
27794;SDS011;15176;50.844;4.412;2023-05-07T07:27:24;10.75;;;3.40;;
27794;SDS011;15176;50.844;4.412;2023-05-07T07:29:51;8.25;;;3.33;;
27794;SDS011;15176;50.844;4.412;2023-05-07T07:32:17;8.88;;;3.20;;
27794;SDS011;15176;50.844;4.412;2023-05-07T07:34:42;7.70;;;3.45;;
27794;SDS011;15176;50.844;4.412;2023-05-07T07:37:08;8.18;;;3.47;;
27794;SDS011;15176;50.844;4.412;2023-05-07T07:39:34;10.15;;;3.42;;
27794;SDS011;15176;50.844;4.412;2023-05-07T07:42:00;11.05;;;3.95;;
27794;SDS011;15176;50.844;4.412;2023-05-07T07:44:27;10.55;;;4.35;;
27794;SDS011;15176;50.844;4.412;2023-05-07T07:46:53;10.40;;;3.85;;
27794;SDS011;15176;50.844;4.412;2023-05-07T07:49:19;8.60;;;3.25;;
27794;SDS011;15176;50.844;4.412;2023-05-07T07:51:45;10.23;;;3.63;;
27794;SDS011;15176;50.844;4.412;2023-05-07T07:54:11;9.73;;;2.92;;
27794;SDS011;15176;50.844;4.412;2023-05-07T07:56:36;8.20;;;3.75;;
27794;SDS011;15176;50.844;4.412;2023-05-07T07:59:03;10.25;;;4.03;;
27794;SDS011;15176;50.844;4.412;2023-05-07T08:01:31;6.75;;;2.70;;
27794;SDS011;15176;50.844;4.412;2023-05-07T08:03:57;11.93;;;3.58;;
27794;SDS011;15176;50.844;4.412;2023-05-07T08:06:24;12.40;;;3.80;;
27794;SDS011;15176;50.844;4.412;2023-05-07T08:08:50;9.27;;;3.83;;
27794;SDS011;15176;50.844;4.412;2023-05-07T08:11:16;11.38;;;4.70;;
27794;SDS011;15176;50.844;4.412;2023-05-07T08:13:42;9.65;;;3.22;;
27794;SDS011;15176;50.844;4.412;2023-05-07T08:16:08;7.32;;;3.60;;
27794;SDS011;15176;50.844;4.412;2023-05-07T08:18:35;9.45;;;3.70;;
27794;SDS011;15176;50.844;4.412;2023-05-07T08:21:01;8.68;;;3.55;;
27794;SDS011;15176;50.844;4.412;2023-05-07T08:23:27;10.98;;;3.78;;
27794;SDS011;15176;50.844;4.412;2023-05-07T08:25:53;11.38;;;4.10;;
27794;SDS011;15176;50.844;4.412;2023-05-07T08:28:18;8.07;;;3.75;;
27794;SDS011;15176;50.844;4.412;2023-05-07T08:30:46;11.00;;;3.75;;
27794;SDS011;15176;50.844;4.412;2023-05-07T08:33:12;9.55;;;4.18;;
27794;SDS011;15176;50.844;4.412;2023-05-07T08:35:37;10.57;;;4.00;;
27794;SDS011;15176;50.844;4.412;2023-05-07T08:38:03;11.75;;;3.88;;
27794;SDS011;15176;50.844;4.412;2023-05-07T08:40:29;9.30;;;3.75;;
27794;SDS011;15176;50.844;4.412;2023-05-07T08:43:01;10.80;;;3.95;;
27794;SDS011;15176;50.844;4.412;2023-05-07T08:45:27;10.63;;;3.90;;
27794;SDS011;15176;50.844;4.412;2023-05-07T08:47:58;11.55;;;3.90;;
27794;SDS011;15176;50.844;4.412;2023-05-07T08:50:26;9.57;;;3.45;;
27794;SDS011;15176;50.844;4.412;2023-05-07T08:52:52;9.23;;;3.58;;
27794;SDS011;15176;50.844;4.412;2023-05-07T08:55:18;8.90;;;3.53;;
27794;SDS011;15176;50.844;4.412;2023-05-07T08:57:45;9.05;;;4.25;;
27794;SDS011;15176;50.844;4.412;2023-05-07T09:00:12;11.68;;;4.28;;
27794;SDS011;15176;50.844;4.412;2023-05-07T09:02:39;10.77;;;4.32;;
27794;SDS011;15176;50.844;4.412;2023-05-07T09:05:05;7.32;;;3.70;;
27794;SDS011;15176;50.844;4.412;2023-05-07T09:07:31;9.23;;;4.25;;
27794;SDS011;15176;50.844;4.412;2023-05-07T09:09:57;9.15;;;4.05;;
27794;SDS011;15176;50.844;4.412;2023-05-07T09:12:24;9.60;;;3.90;;
27794;SDS011;15176;50.844;4.412;2023-05-07T09:14:49;8.10;;;3.40;;
27794;SDS011;15176;50.844;4.412;2023-05-07T09:17:16;11.65;;;4.40;;
27794;SDS011;15176;50.844;4.412;2023-05-07T09:19:43;11.38;;;4.80;;
27794;SDS011;15176;50.844;4.412;2023-05-07T09:22:10;8.45;;;3.95;;
27794;SDS011;15176;50.844;4.412;2023-05-07T09:24:37;11.93;;;4.57;;
27794;SDS011;15176;50.844;4.412;2023-05-07T09:27:06;12.23;;;4.57;;
27794;SDS011;15176;50.844;4.412;2023-05-07T09:29:33;10.02;;;4.10;;
27794;SDS011;15176;50.844;4.412;2023-05-07T09:32:03;8.30;;;3.80;;
27794;SDS011;15176;50.844;4.412;2023-05-07T09:34:30;10.18;;;4.28;;
27794;SDS011;15176;50.844;4.412;2023-05-07T09:36:56;10.60;;;3.70;;
27794;SDS011;15176;50.844;4.412;2023-05-07T09:39:25;9.52;;;3.78;;
27794;SDS011;15176;50.844;4.412;2023-05-07T09:42:03;10.23;;;3.47;;
27794;SDS011;15176;50.844;4.412;2023-05-07T09:44:29;8.38;;;3.38;;
27794;SDS011;15176;50.844;4.412;2023-05-07T09:46:57;10.50;;;3.90;;
27794;SDS011;15176;50.844;4.412;2023-05-07T09:49:25;8.93;;;3.35;;
27794;SDS011;15176;50.844;4.412;2023-05-07T09:51:57;8.25;;;3.65;;
27794;SDS011;15176;50.844;4.412;2023-05-07T09:54:24;10.35;;;3.63;;
27794;SDS011;15176;50.844;4.412;2023-05-07T09:56:52;8.02;;;3.25;;
27794;SDS011;15176;50.844;4.412;2023-05-07T09:59:18;9.38;;;3.10;;
27794;SDS011;15176;50.844;4.412;2023-05-07T10:01:45;7.55;;;3.10;;
27794;SDS011;15176;50.844;4.412;2023-05-07T10:04:11;9.77;;;2.95;;
27794;SDS011;15176;50.844;4.412;2023-05-07T10:06:37;8.18;;;3.25;;
27794;SDS011;15176;50.844;4.412;2023-05-07T10:09:03;9.15;;;2.65;;
27794;SDS011;15176;50.844;4.412;2023-05-07T10:11:33;9.13;;;3.70;;
27794;SDS011;15176;50.844;4.412;2023-05-07T10:14:00;7.90;;;2.60;;
27794;SDS011;15176;50.844;4.412;2023-05-07T10:16:34;8.85;;;2.58;;
27794;SDS011;15176;50.844;4.412;2023-05-07T10:19:04;7.90;;;2.60;;
27794;SDS011;15176;50.844;4.412;2023-05-07T10:21:33;8.82;;;4.43;;
27794;SDS011;15176;50.844;4.412;2023-05-07T10:24:06;8.93;;;4.50;;
27794;SDS011;15176;50.844;4.412;2023-05-07T10:26:42;12.07;;;5.47;;
27794;SDS011;15176;50.844;4.412;2023-05-07T10:32:07;8.75;;;3.10;;
27794;SDS011;15176;50.844;4.412;2023-05-07T10:34:50;9.43;;;3.20;;
27794;SDS011;15176;50.844;4.412;2023-05-07T10:37:20;7.03;;;2.50;;
27794;SDS011;15176;50.844;4.412;2023-05-07T10:39:46;7.30;;;3.33;;
27794;SDS011;15176;50.844;4.412;2023-05-07T10:42:13;7.50;;;2.67;;
27794;SDS011;15176;50.844;4.412;2023-05-07T10:44:40;9.18;;;3.33;;
27794;SDS011;15176;50.844;4.412;2023-05-07T10:47:09;6.57;;;2.80;;
27794;SDS011;15176;50.844;4.412;2023-05-07T10:52:11;6.22;;;2.72;;
27794;SDS011;15176;50.844;4.412;2023-05-07T10:54:46;6.80;;;2.60;;
27794;SDS011;15176;50.844;4.412;2023-05-07T10:59:56;12.07;;;3.20;;
27794;SDS011;15176;50.844;4.412;2023-05-07T11:02:22;8.77;;;3.22;;
27794;SDS011;15176;50.844;4.412;2023-05-07T11:07:56;9.45;;;2.95;;
27794;SDS011;15176;50.844;4.412;2023-05-07T11:16:19;7.18;;;2.70;;
27794;SDS011;15176;50.844;4.412;2023-05-07T11:18:46;7.05;;;2.90;;
27794;SDS011;15176;50.844;4.412;2023-05-07T11:21:18;5.97;;;2.53;;
27794;SDS011;15176;50.844;4.412;2023-05-07T11:24:00;6.57;;;2.88;;
27794;SDS011;15176;50.844;4.412;2023-05-07T11:26:50;7.65;;;2.92;;
27794;SDS011;15176;50.844;4.412;2023-05-07T11:29:16;6.40;;;2.00;;
27794;SDS011;15176;50.844;4.412;2023-05-07T11:31:50;5.40;;;2.25;;
27794;SDS011;15176;50.844;4.412;2023-05-07T11:34:23;7.93;;;2.17;;
27794;SDS011;15176;50.844;4.412;2023-05-07T11:36:53;4.93;;;2.08;;
27794;SDS011;15176;50.844;4.412;2023-05-07T11:41:54;3.47;;;1.70;;
27794;SDS011;15176;50.844;4.412;2023-05-07T11:44:20;3.55;;;1.80;;
27794;SDS011;15176;50.844;4.412;2023-05-07T11:46:46;4.72;;;1.88;;
27794;SDS011;15176;50.844;4.412;2023-05-07T11:49:15;5.85;;;1.88;;
27794;SDS011;15176;50.844;4.412;2023-05-07T11:51:41;4.30;;;1.60;;
27794;SDS011;15176;50.844;4.412;2023-05-07T11:54:07;6.40;;;1.60;;
27794;SDS011;15176;50.844;4.412;2023-05-07T11:56:36;4.20;;;1.70;;
27794;SDS011;15176;50.844;4.412;2023-05-07T11:59:02;4.18;;;1.80;;
27794;SDS011;15176;50.844;4.412;2023-05-07T12:01:28;5.95;;;1.77;;
27794;SDS011;15176;50.844;4.412;2023-05-07T12:03:55;5.13;;;2.00;;
27794;SDS011;15176;50.844;4.412;2023-05-07T12:06:21;5.50;;;1.90;;
27794;SDS011;15176;50.844;4.412;2023-05-07T12:08:48;5.00;;;1.70;;
27794;SDS011;15176;50.844;4.412;2023-05-07T12:11:21;5.20;;;1.73;;
27794;SDS011;15176;50.844;4.412;2023-05-07T12:13:48;4.32;;;1.50;;
27794;SDS011;15176;50.844;4.412;2023-05-07T12:16:13;4.90;;;1.60;;
27794;SDS011;15176;50.844;4.412;2023-05-07T12:18:40;5.50;;;1.80;;
27794;SDS011;15176;50.844;4.412;2023-05-07T12:21:07;3.90;;;1.58;;
27794;SDS011;15176;50.844;4.412;2023-05-07T12:23:36;4.78;;;1.85;;
27794;SDS011;15176;50.844;4.412;2023-05-07T12:26:02;7.00;;;2.03;;
27794;SDS011;15176;50.844;4.412;2023-05-07T12:28:28;4.50;;;1.80;;
27794;SDS011;15176;50.844;4.412;2023-05-07T12:30:55;4.15;;;1.80;;
27794;SDS011;15176;50.844;4.412;2023-05-07T12:33:25;4.70;;;1.88;;
27794;SDS011;15176;50.844;4.412;2023-05-07T12:35:52;3.72;;;1.60;;
27794;SDS011;15176;50.844;4.412;2023-05-07T12:38:19;6.20;;;1.80;;
27794;SDS011;15176;50.844;4.412;2023-05-07T12:40:45;4.85;;;1.77;;
27794;SDS011;15176;50.844;4.412;2023-05-07T12:43:25;5.72;;;2.00;;
27794;SDS011;15176;50.844;4.412;2023-05-07T12:45:53;7.85;;;2.20;;
27794;SDS011;15176;50.844;4.412;2023-05-07T12:48:21;5.20;;;1.98;;
27794;SDS011;15176;50.844;4.412;2023-05-07T12:50:51;5.78;;;2.40;;
27794;SDS011;15176;50.844;4.412;2023-05-07T12:53:19;5.07;;;2.00;;
27794;SDS011;15176;50.844;4.412;2023-05-07T12:55:46;6.20;;;2.30;;
27794;SDS011;15176;50.844;4.412;2023-05-07T12:58:15;3.90;;;1.92;;
27794;SDS011;15176;50.844;4.412;2023-05-07T13:00:50;5.85;;;2.90;;
27794;SDS011;15176;50.844;4.412;2023-05-07T13:03:26;6.10;;;3.40;;
27794;SDS011;15176;50.844;4.412;2023-05-07T13:05:58;7.10;;;3.67;;
27794;SDS011;15176;50.844;4.412;2023-05-07T13:08:32;8.65;;;3.78;;
27794;SDS011;15176;50.844;4.412;2023-05-07T13:10:59;7.28;;;3.88;;
27794;SDS011;15176;50.844;4.412;2023-05-07T13:13:29;7.90;;;4.45;;
27794;SDS011;15176;50.844;4.412;2023-05-07T13:15:56;7.93;;;4.40;;
27794;SDS011;15176;50.844;4.412;2023-05-07T13:18:22;9.10;;;4.90;;
27794;SDS011;15176;50.844;4.412;2023-05-07T13:20:49;6.20;;;3.95;;
27794;SDS011;15176;50.844;4.412;2023-05-07T13:23:15;8.95;;;4.75;;
27794;SDS011;15176;50.844;4.412;2023-05-07T13:25:42;7.90;;;4.90;;
27794;SDS011;15176;50.844;4.412;2023-05-07T13:28:08;6.90;;;4.70;;
27794;SDS011;15176;50.844;4.412;2023-05-07T13:30:33;7.65;;;4.47;;
27794;SDS011;15176;50.844;4.412;2023-05-07T13:32:59;7.50;;;5.40;;
27794;SDS011;15176;50.844;4.412;2023-05-07T13:35:25;8.90;;;5.45;;
27794;SDS011;15176;50.844;4.412;2023-05-07T13:37:51;9.63;;;6.30;;
27794;SDS011;15176;50.844;4.412;2023-05-07T13:40:17;8.30;;;5.20;;
27794;SDS011;15176;50.844;4.412;2023-05-07T13:42:44;10.98;;;7.00;;
27794;SDS011;15176;50.844;4.412;2023-05-07T13:45:10;10.38;;;6.88;;
27794;SDS011;15176;50.844;4.412;2023-05-07T13:47:35;10.55;;;7.28;;
27794;SDS011;15176;50.844;4.412;2023-05-07T13:50:01;10.05;;;6.35;;
27794;SDS011;15176;50.844;4.412;2023-05-07T13:52:28;10.55;;;6.75;;
27794;SDS011;15176;50.844;4.412;2023-05-07T13:54:54;10.05;;;6.60;;
27794;SDS011;15176;50.844;4.412;2023-05-07T13:57:20;9.82;;;6.95;;
27794;SDS011;15176;50.844;4.412;2023-05-07T13:59:45;12.43;;;7.93;;
27794;SDS011;15176;50.844;4.412;2023-05-07T14:02:11;11.55;;;7.82;;
27794;SDS011;15176;50.844;4.412;2023-05-07T14:04:37;12.23;;;8.15;;
27794;SDS011;15176;50.844;4.412;2023-05-07T14:07:03;11.45;;;7.47;;
27794;SDS011;15176;50.844;4.412;2023-05-07T14:09:28;9.65;;;7.13;;
27794;SDS011;15176;50.844;4.412;2023-05-07T14:11:55;11.43;;;8.20;;
27794;SDS011;15176;50.844;4.412;2023-05-07T14:14:22;9.52;;;7.15;;
27794;SDS011;15176;50.844;4.412;2023-05-07T14:16:47;11.63;;;7.68;;
27794;SDS011;15176;50.844;4.412;2023-05-07T14:19:13;11.40;;;8.40;;
27794;SDS011;15176;50.844;4.412;2023-05-07T14:21:39;12.25;;;8.68;;
27794;SDS011;15176;50.844;4.412;2023-05-07T14:24:06;10.35;;;8.10;;
27794;SDS011;15176;50.844;4.412;2023-05-07T14:26:33;12.63;;;9.10;;
27794;SDS011;15176;50.844;4.412;2023-05-07T14:28:59;12.15;;;8.75;;
27794;SDS011;15176;50.844;4.412;2023-05-07T14:31:25;11.50;;;8.80;;
27794;SDS011;15176;50.844;4.412;2023-05-07T14:33:54;12.98;;;10.18;;
27794;SDS011;15176;50.844;4.412;2023-05-07T14:36:19;12.80;;;9.77;;
27794;SDS011;15176;50.844;4.412;2023-05-07T14:38:47;15.45;;;10.50;;
27794;SDS011;15176;50.844;4.412;2023-05-07T14:41:14;12.75;;;9.80;;
27794;SDS011;15176;50.844;4.412;2023-05-07T14:43:41;12.95;;;9.23;;
27794;SDS011;15176;50.844;4.412;2023-05-07T14:46:06;12.02;;;8.57;;
27794;SDS011;15176;50.844;4.412;2023-05-07T14:48:32;12.18;;;8.93;;
27794;SDS011;15176;50.844;4.412;2023-05-07T14:50:58;10.98;;;8.43;;
27794;SDS011;15176;50.844;4.412;2023-05-07T14:53:23;11.20;;;8.00;;
27794;SDS011;15176;50.844;4.412;2023-05-07T14:55:49;10.95;;;8.23;;
27794;SDS011;15176;50.844;4.412;2023-05-07T14:58:16;11.10;;;7.75;;